San Juan, PR (00921)

5:15 PM AST on September 20, 2014 (GMT -0400)
Reparto Metropolitano | Change Station
CLOSE
Current Station
Personal Weather Station
Location: San Juan, PR
Elevation: 36 ft
Nearby Weather Stations

Elev 36 ft 18.40 °N, 66.08 °W | Updated 3 minutes ago

Scattered Clouds
Scattered Clouds
84.4 °F
Feels Like 82 °F
N
2.0
Wind Variable Wind from ESE
Gusts 3.0 mph

Today
High -- | Low -- °F
--% Chance of Precip.
Yesterday
High -- | Low -- °F
Precip. -- in
6:12 AM 6:22 PM
Waning Crescent, 10% visible
Pressure 29.93 in
Visibility 10.0 miles
Clouds Few 2700 ft
Scattered Clouds 4400 ft
Scattered Clouds 10000 ft
Heat Index 82 °F
Dew Point Not available.
Humidity Not available.
Rainfall 0.02 in
Snow Depth Not available.
UV 0.0 out of 12
Pollen Not available.
Air Quality Not available.
Flu Activity Not available.
METAR TJSJ 202056Z 11004KT 10SM FEW027 SCT044 SCT100 29/24 A2993 RMK AO2 TSE33RAB03E27 SLP135 VCSH SE P0000 60003 T02890244 56005 $

More Conditions Fewer Conditions

Pressure 29.93 in
Visibility 10.0 miles
Clouds Few 2700 ft
Scattered Clouds 4400 ft
Scattered Clouds 10000 ft
Heat Index 82 °F
Dew Point Not available.
Humidity Not available.
Rainfall 0.02 in
Snow Depth Not available.
UV 0.0 out of 12
Pollen Not available.
Air Quality Not available.
Flu Activity Not available.
METAR TJSJ 202056Z 11004KT 10SM FEW027 SCT044 SCT100 29/24 A2993 RMK AO2 TSE33RAB03E27 SLP135 VCSH SE P0000 60003 T02890244 56005 $

More Conditions Fewer Conditions

10-Day Weather Forecast

Almanac

Astronomy

Sep. 20, 2014 Rise Set
Actual Time 6:12 AM AST 6:22 PM AST
Civil Twilight 5:51 AM AST 6:44 PM AST
Nautical Twilight 5:25 AM AST 7:09 PM AST
Astronomical Twilight 5:00 AM AST 7:34 PM AST
Moon 3:11 AM AST 4:04 PM AST
Length of Visible Light 12h 52m
Length of Day
12h 09m
Tomorrow will be 1m 2s shorter.
Waning Crescent, 10% of the Moon is Illuminated
Today
Waning Crescent
Sep 24
New
Oct 1
First Quarter
Oct 8
Full
Oct 15
Last Quarter

Community

WunderPhotos

Upload Photos

1,754,947 photos uploaded!

WunderBlogs® & News

Nearby

Snow Depth

Station Depth Elevation
No new snow has been reported.

Earthquake Activity

City Distance Mag. Time & Date
No recent earthquake activity has been reported nearby.
Minimum magnitude displayed is 2.5.

Coastal Water Temperatures

Place Temperature
San Juan, PR 86.0 °F
Mayaguez, PR 84.9 °F
Esperanza, PR 86.0 °F

Nearby Weather Stations